Time;durP1;ratioP1;P1;durP2;ratioP2;P2;SDS_P1;SDS_P2;PMS_P1;PMS_P2;Temp;Humidity;BMP_temperature;BMP_pressure;BME280_temperature;BME280_humidity;BME280_pressure;Samples;Min_cycle;Max_cycle;Signal;HPM_P1;HPM_P2
2022/08/11 00:00:43;;;;;;;0.30;0.28;;;;;;;16.83;78.96;101520.31;5047996;28;20400;-60
2022/08/11 00:03:11;;;;;;;0.20;0.20;;;;;;;16.83;78.97;101525.56;5047593;28;20032;-59
2022/08/11 00:05:49;;;;;;;0.20;0.20;;;;;;;16.81;79.03;101522.97;5047204;28;20025;-59
2022/08/11 00:08:29;;;;;;;0.40;0.40;;;;;;;16.80;78.88;101521.25;5047275;28;20044;-61
2022/08/11 00:11:08;;;;;;;0.20;0.20;;;;;;;16.80;79.11;101520.38;5047007;28;20032;-61
2022/08/11 00:13:46;;;;;;;0.20;0.20;;;;;;;16.76;79.09;101522.19;5047251;28;20034;-60
2022/08/11 00:16:14;;;;;;;0.20;0.20;;;;;;;16.75;78.92;101517.84;5047105;28;20029;-61
2022/08/11 00:18:46;;;;;;;2.30;2.05;;;;;;;16.80;79.08;101521.25;5047107;28;20021;-60
2022/08/11 00:21:12;;;;;;;0.28;0.28;;;;;;;16.78;79.11;101509.03;5029217;28;20021;-60
2022/08/11 00:23:46;;;;;;;0.40;0.40;;;;;;;16.77;79.19;101521.31;5046818;28;20038;-60
2022/08/11 00:26:15;;;;;;;0.20;0.20;;;;;;;16.79;78.97;101516.88;5046581;28;20052;-61
2022/08/11 00:28:41;;;;;;;0.20;0.20;;;;;;;16.79;78.98;101519.50;5046917;28;20025;-60
2022/08/11 00:31:18;;;;;;;0.20;0.20;;;;;;;16.75;79.03;101512.59;5046947;28;20036;-60
2022/08/11 00:33:44;;;;;;;0.20;0.20;;;;;;;16.75;79.25;101511.72;5047080;28;20142;-60
2022/08/11 00:36:14;;;;;;;0.20;0.20;;;;;;;16.70;79.19;101502.19;5029041;28;20025;-60
2022/08/11 00:38:42;;;;;;;0.20;0.20;;;;;;;16.73;79.07;101504.75;5046952;28;20097;-60
2022/08/11 00:41:27;;;;;;;0.20;0.20;;;;;;;16.71;79.32;101503.91;5046396;28;20025;-59
2022/08/11 00:44:14;;;;;;;0.20;0.20;;;;;;;16.72;79.27;101503.00;5046229;28;20045;-59
2022/08/11 00:47:16;;;;;;;0.20;0.20;;;;;;;16.71;79.27;101500.41;5046485;28;20090;-59
2022/08/11 00:49:56;;;;;;;0.25;0.25;;;;;;;16.69;79.55;101507.47;5046572;28;20143;-62
2022/08/11 00:52:43;;;;;;;0.20;0.20;;;;;;;16.66;79.47;101502.25;5046273;28;20029;-61
2022/08/11 00:55:23;;;;;;;0.20;0.20;;;;;;;16.66;79.71;101504.88;5046392;28;20031;-61
2022/08/11 00:58:09;;;;;;;0.20;0.20;;;;;;;16.64;79.88;101504.03;5046428;28;20025;-60
2022/08/11 01:01:12;;;;;;;0.20;0.20;;;;;;;16.64;79.65;101506.66;5046414;28;20059;-58
2022/08/11 01:03:56;;;;;;;0.30;0.30;;;;;;;16.64;80.08;101506.66;5046285;28;20040;-61
2022/08/11 01:06:49;;;;;;;0.20;0.20;;;;;;;16.63;79.82;101505.78;5046182;28;20033;-60
2022/08/11 01:09:45;;;;;;;0.20;0.20;;;;;;;16.58;80.08;101500.63;5046228;28;20029;-60
2022/08/11 01:12:44;;;;;;;0.47;0.47;;;;;;;16.59;80.16;101497.13;5027614;28;20366;-60
2022/08/11 01:15:28;;;;;;;0.20;0.20;;;;;;;16.62;79.78;101500.56;5045819;28;20109;-60
2022/08/11 01:18:39;;;;;;;0.20;0.20;;;;;;;16.62;79.87;101508.44;5046330;28;20021;-60
2022/08/11 01:21:32;;;;;;;0.20;0.20;;;;;;;16.59;79.76;101509.34;5007831;28;20041;-61
2022/08/11 01:24:35;;;;;;;0.20;0.20;;;;;;;16.55;79.98;101507.69;5045792;28;20026;-61
2022/08/11 01:27:35;;;;;;;0.30;0.30;;;;;;;16.50;79.70;101505.13;5045603;28;20041;-60
2022/08/11 01:30:39;;;;;;;0.20;0.20;;;;;;;16.50;80.08;101501.66;5045749;28;20408;-60
2022/08/11 01:33:22;;;;;;;0.20;0.20;;;;;;;16.45;80.29;101504.34;5016247;28;20407;-59
2022/08/11 01:35:48;;;;;;;0.20;0.20;;;;;;;16.47;80.04;101499.91;5045599;28;20081;-60
2022/08/11 01:38:44;;;;;;;0.20;0.20;;;;;;;16.45;80.14;101493.84;5045438;28;20025;-61
2022/08/11 01:44:45;;;;;;;0.20;0.20;;;;;;;16.42;80.50;101489.50;5045425;28;20037;-60
2022/08/11 01:50:23;;;;;;;0.20;0.20;;;;;;;16.42;80.90;101499.16;5045721;28;20164;-59
2022/08/11 01:53:17;;;;;;;0.20;0.20;;;;;;;16.44;80.50;101497.34;5045285;28;20032;-59
2022/08/11 01:55:59;;;;;;;0.20;0.20;;;;;;;16.42;80.49;101504.38;5045197;28;20036;-60
2022/08/11 01:59:13;;;;;;;0.20;0.20;;;;;;;16.46;80.22;101506.94;5045231;28;20057;-61
2022/08/11 02:02:08;;;;;;;0.20;0.20;;;;;;;16.43;80.04;101508.72;5036561;28;20048;-60
2022/08/11 02:04:51;;;;;;;0.20;0.20;;;;;;;16.39;80.40;101505.28;5009045;28;20508;-60
2022/08/11 02:07:32;;;;;;;0.30;0.30;;;;;;;16.39;79.89;101509.69;5045098;28;20033;-61
2022/08/11 02:13:28;;;;;;;0.20;0.20;;;;;;;16.28;80.91;101512.47;5045406;28;20048;-60
2022/08/11 02:16:07;;;;;;;0.20;0.20;;;;;;;16.28;80.66;101510.69;5045128;28;20033;-60
2022/08/11 02:24:32;;;;;;;0.20;0.20;;;;;;;16.23;80.95;101500.28;5045141;28;20029;-61
2022/08/11 02:27:07;;;;;;;0.20;0.20;;;;;;;16.22;81.00;101511.66;5044279;28;20056;-59
2022/08/11 02:29:32;;;;;;;0.20;0.20;;;;;;;16.19;81.00;101509.06;5044219;28;20022;-60
2022/08/11 02:35:11;;;;;;;0.20;0.20;;;;;;;16.14;80.91;101503.03;5044234;28;20032;-61
2022/08/11 02:38:00;;;;;;;0.20;0.20;;;;;;;16.14;81.01;101502.16;5026068;28;20025;-60
2022/08/11 02:40:49;;;;;;;0.73;0.73;;;;;;;16.09;81.62;101503.09;5044122;28;20041;-60
2022/08/11 02:43:27;;;;;;;0.20;0.20;;;;;;;16.05;82.08;101508.41;5044213;28;20068;-60
2022/08/11 02:46:16;;;;;;;0.20;0.20;;;;;;;16.02;82.55;101503.22;5044099;28;20121;-59
2022/08/11 02:52:02;;;;;;;0.30;0.30;;;;;;;15.98;83.42;101499.75;5044349;28;20526;-59
2022/08/11 02:55:09;;;;;;;0.32;0.32;;;;;;;16.01;84.10;101499.72;5043753;28;20026;-60
2022/08/11 02:57:43;;;;;;;0.20;0.20;;;;;;;16.03;83.41;101497.06;5043470;28;20068;-61
2022/08/11 03:00:15;;;;;;;0.20;0.20;;;;;;;16.01;83.92;101499.72;5043892;28;20079;-61
2022/08/11 03:02:49;;;;;;;0.82;0.82;;;;;;;16.03;84.36;101504.94;5043886;28;20104;-59
2022/08/11 03:05:21;;;;;;;0.20;0.20;;;;;;;16.06;83.84;101497.91;5043650;28;20036;-59
2022/08/11 03:07:55;;;;;;;;;;;;;;;16.09;84.31;101503.09;5044148;28;20032;-59
2022/08/11 03:10:35;;;;;;;0.50;0.50;;;;;;;16.01;84.12;101502.34;5043746;28;20388;-60
2022/08/11 03:19:24;;;;;;;0.28;0.28;;;;;;;16.02;84.74;101501.47;5047102;28;20052;-59
2022/08/11 03:22:05;;;;;;;1.05;1.05;;;;;;;16.07;84.50;101501.41;5046995;28;20033;-61
2022/08/11 03:24:48;;;;;;;0.43;0.43;;;;;;;16.04;84.83;101493.59;5046669;28;20033;-59
2022/08/11 03:27:22;;;;;;;0.20;0.20;;;;;;;16.05;84.97;101497.94;4999497;28;1381900;-60
2022/08/11 03:30:09;;;;;;;0.20;0.20;;;;;;;16.04;85.09;101499.66;5048042;28;20046;-60
2022/08/11 03:35:42;;;;;;;0.30;0.30;;;;;;;16.05;85.33;101485.72;5048049;28;20093;-60
2022/08/11 03:38:15;;;;;;;0.20;0.20;;;;;;;16.04;85.29;101483.09;5047748;28;20025;-60
2022/08/11 03:44:06;;;;;;;0.20;0.20;;;;;;;16.16;85.41;101495.16;5047867;28;20044;-59
2022/08/11 03:47:07;;;;;;;0.20;0.20;;;;;;;16.28;86.75;101492.34;5047584;28;20059;-59
2022/08/11 03:49:32;;;;;;;0.20;0.20;;;;;;;16.46;86.94;101501.69;4947812;29;20036;-62
2022/08/11 03:52:00;;;;;;;0.40;0.40;;;;;;;16.67;87.36;101496.13;4947740;29;20044;-61
2022/08/11 03:55:10;;;;;;;0.20;0.20;;;;;;;16.96;86.67;101500.00;4947749;29;20023;-59
2022/08/11 03:57:55;;;;;;;0.20;0.20;;;;;;;17.33;86.66;101494.09;4947686;29;20043;-59
2022/08/11 04:01:05;;;;;;;0.20;0.20;;;;;;;17.52;84.46;101503.38;4931377;29;20031;-60
2022/08/11 04:03:53;;;;;;;0.20;0.20;;;;;;;17.77;84.17;101508.97;4918585;29;20027;-60
2022/08/11 04:06:24;;;;;;;0.20;0.20;;;;;;;18.12;84.42;101500.38;4947586;29;20032;-61
2022/08/11 04:09:15;;;;;;;1.30;1.20;;;;;;;18.38;82.13;101505.06;4947401;29;20164;-60
2022/08/11 04:12:08;;;;;;;0.20;0.20;;;;;;;18.67;81.91;101511.38;4947464;29;20382;-61
2022/08/11 04:17:47;;;;;;;0.20;0.20;;;;;;;19.37;78.11;101521.00;4947329;29;20550;-60
2022/08/11 04:20:50;;;;;;;0.20;0.20;;;;;;;19.63;77.47;101508.88;4931098;29;20051;-59
2022/08/11 04:23:47;;;;;;;0.50;0.50;;;;;;;20.02;76.27;101512.97;4985221;28;20037;-61
2022/08/11 04:26:15;;;;;;;0.35;0.35;;;;;;;20.39;77.18;101511.00;5045844;28;20048;-60
2022/08/11 04:29:02;;;;;;;0.30;0.30;;;;;;;20.78;73.50;101515.03;5046953;28;20091;-61
2022/08/11 04:31:56;;;;;;;0.10;0.10;;;;;;;21.31;73.20;101521.13;5046573;28;20033;-61
2022/08/11 04:34:43;;;;;;;0.20;0.20;;;;;;;21.93;72.77;101507.44;5046147;28;20029;-61
2022/08/11 04:37:33;;;;;;;0.20;0.20;;;;;;;22.40;69.02;101509.09;5046811;28;20052;-61
2022/08/11 04:40:09;;;;;;;0.20;0.20;;;;;;;22.81;68.75;101510.13;5046793;28;20021;-61
2022/08/11 04:43:21;;;;;;;0.10;0.10;;;;;;;23.10;66.16;101509.78;5046410;28;20091;-60
2022/08/11 04:45:50;;;;;;;0.20;0.20;;;;;;;23.58;67.42;101505.00;5046405;28;20033;-61
2022/08/11 05:05:29;;;;;;;0.10;0.10;;;;;;;26.59;55.57;101517.91;5046230;28;20388;-59
2022/08/11 05:07:13;;;;;;;0.20;0.20;;;;;;;26.71;54.48;101521.63;4946326;29;20043;-62
2022/08/11 05:10:21;;;;;;;0.10;0.10;;;;;;;26.71;54.68;101520.78;5046045;28;20492;-61
2022/08/11 05:27:09;;;;;;;0.20;0.20;;;;;;;26.91;54.45;101518.72;4991276;28;20037;-61
2022/08/11 05:36:26;;;;;;;0.10;0.10;;;;;;;28.38;49.28;101512.28;5045941;28;20036;-61
2022/08/11 05:58:40;;;;;;;0.98;0.98;;;;;;;29.96;45.70;101528.16;5045610;28;20091;-61
2022/08/11 06:01:06;;;;;;;0.10;0.10;;;;;;;29.64;44.92;101522.38;5045480;28;20516;-62
2022/08/11 06:04:13;;;;;;;0.10;0.10;;;;;;;29.81;44.42;101528.31;5045281;28;20029;-62
2022/08/11 06:06:25;;;;;;;0.10;0.10;;;;;;;29.58;42.67;101538.88;5045152;28;20037;-61
2022/08/11 06:08:55;;;;;;;0.10;0.10;;;;;;;29.34;43.15;101525.41;5045472;28;20048;-62
2022/08/11 06:11:22;;;;;;;0.10;0.10;;;;;;;29.46;43.36;101529.88;5045125;28;20025;-61
2022/08/11 06:13:48;;;;;;;0.10;0.10;;;;;;;29.76;43.60;101535.84;5045343;28;20022;-62
2022/08/11 06:16:20;;;;;;;0.10;0.10;;;;;;;29.97;43.20;101532.56;5045269;28;20033;-61
2022/08/11 06:18:46;;;;;;;0.10;0.10;;;;;;;30.32;43.48;101533.59;5045130;28;20044;-61
2022/08/11 06:21:14;;;;;;;0.10;0.10;;;;;;;30.31;41.98;101532.72;5045231;28;20104;-61
2022/08/11 06:23:41;;;;;;;0.10;0.10;;;;;;;30.05;42.35;101530.13;5027428;28;20029;-61
2022/08/11 06:26:09;;;;;;;0.10;0.10;;;;;;;30.32;42.25;101523.75;5044673;28;20052;-62
2022/08/11 06:28:37;;;;;;;0.10;0.10;;;;;;;30.36;42.02;101521.66;5045319;28;20334;-60
2022/08/11 06:31:11;;;;;;;0.10;0.10;;;;;;;30.71;42.23;101530.66;5045244;28;20029;-60
2022/08/11 06:33:52;;;;;;;0.10;0.10;;;;;;;30.86;42.02;101529.53;5044975;28;20032;-60
2022/08/11 06:36:53;;;;;;;0.10;0.10;;;;;;;30.79;39.57;101533.63;5045369;28;20032;-60
2022/08/11 06:39:47;;;;;;;0.10;0.10;;;;;;;30.76;40.90;101534.72;5027659;28;20036;-61
2022/08/11 06:42:41;;;;;;;0.10;0.10;;;;;;;30.96;38.50;101534.16;5045021;28;20021;-62
2022/08/11 06:45:24;;;;;;;0.20;0.20;;;;;;;30.96;39.87;101535.00;5044272;28;20045;-61
2022/08/11 06:47:51;;;;;;;0.10;0.10;;;;;;;30.73;38.70;101534.09;5045051;28;20026;-61
2022/08/11 06:53:11;;;;;;;0.20;0.20;;;;;;;30.51;39.70;101531.22;5049070;28;20036;-61
2022/08/11 07:01:43;;;;;;;0.35;0.35;;;;;;;30.55;37.83;101531.84;5048850;28;20052;-62
2022/08/11 07:04:09;;;;;;;0.10;0.10;;;;;;;30.51;38.71;101535.75;5048599;28;20041;-62
2022/08/11 07:15:47;;;;;;;0.10;0.10;;;;;;;30.90;38.04;101535.47;5048354;28;20032;-60
2022/08/11 07:29:46;;;;;;;0.10;0.10;;;;;;;32.20;36.90;101544.91;5048102;28;20032;-60
2022/08/11 07:32:18;;;;;;;0.10;0.10;;;;;;;32.52;37.67;101546.75;5047562;28;20025;-59
2022/08/11 07:34:53;;;;;;;0.10;0.10;;;;;;;32.68;37.28;101539.19;5048166;28;20043;-59
2022/08/11 07:37:20;;;;;;;0.10;0.10;;;;;;;32.55;35.63;101548.31;5048118;28;20021;-60
2022/08/11 07:39:48;;;;;;;0.10;0.10;;;;;;;32.50;35.71;101551.38;5030218;28;20039;-61
2022/08/11 07:42:18;;;;;;;0.10;0.10;;;;;;;32.49;35.66;101549.63;5047915;28;20036;-60
2022/08/11 07:53:00;;;;;;;0.08;0.08;;;;;;;32.58;34.14;101549.88;5047616;28;20085;-59
2022/08/11 07:55:30;;;;;;;0.10;0.10;;;;;;;32.72;33.87;101551.38;5047581;28;20053;-60
2022/08/11 08:19:47;;;;;;;0.10;0.10;;;;;;;33.86;32.65;101552.31;5241433;22;20854;-59
2022/08/11 08:22:18;;;;;;;0.10;0.10;;;;;;;33.91;32.32;101554.59;5025492;28;20576;-64
2022/08/11 08:24:43;;;;;;;;;;;;;;;33.92;31.45;101554.44;5275742;22;20080;-60
2022/08/11 08:27:12;;;;;;;0.10;0.10;;;;;;;33.78;31.53;101558.41;5324124;22;19921;-58
2022/08/11 08:32:23;;;;;;;0.10;0.10;;;;;;;34.22;31.31;101541.03;5731371;22;20106;-66
2022/08/11 08:34:50;;;;;;;0.10;0.10;;;;;;;34.12;29.74;101552.63;5046191;28;20045;-66
2022/08/11 08:37:20;;;;;;;0.15;0.15;;;;;;;33.72;30.42;101549.06;5047091;28;20028;-66
2022/08/11 08:39:46;;;;;;;0.10;0.10;;;;;;;33.53;30.41;101555.22;5047165;28;20120;-66
2022/08/11 08:42:17;;;;;;;0.10;0.10;;;;;;;33.31;30.41;101548.19;5046778;28;20028;-66
2022/08/11 08:44:46;;;;;;;0.10;0.10;;;;;;;33.34;31.04;101547.91;5046308;28;20033;-66
2022/08/11 08:47:14;;;;;;;0.10;0.10;;;;;;;33.41;31.00;101546.38;5046784;28;20037;-67
2022/08/11 08:49:48;;;;;;;0.10;0.10;;;;;;;33.73;31.12;101550.75;5046933;28;20022;-66
2022/08/11 08:52:17;;;;;;;0.10;0.10;;;;;;;33.96;31.07;101537.03;5046777;28;20025;-65
2022/08/11 08:54:44;;;;;;;0.10;0.10;;;;;;;34.13;30.62;101540.88;5046577;28;20076;-66
2022/08/11 08:57:12;;;;;;;0.10;0.10;;;;;;;34.25;30.24;101544.28;5046718;28;20017;-60
2022/08/11 08:59:45;;;;;;;0.35;0.35;;;;;;;34.18;29.94;101539.63;5046558;28;20021;-59
2022/08/11 09:02:11;;;;;;;0.10;0.10;;;;;;;33.82;30.17;101553.59;5046434;28;20040;-59
2022/08/11 09:04:38;;;;;;;0.10;0.10;;;;;;;33.53;30.15;101544.44;5046231;28;20025;-59
2022/08/11 09:07:14;;;;;;;0.10;0.10;;;;;;;33.24;31.08;101542.50;5046351;28;20029;-60
2022/08/11 09:09:51;;;;;;;0.10;0.10;;;;;;;33.42;31.39;101541.84;5046566;28;20021;-60
2022/08/11 09:12:19;;;;;;;1.95;1.17;;;;;;;33.48;31.08;101546.69;5045655;28;20032;-59
2022/08/11 09:15:04;;;;;;;0.20;0.20;;;;;;;33.67;30.53;101547.75;5045191;28;20017;-60
2022/08/11 09:17:39;;;;;;;0.20;0.20;;;;;;;33.45;30.45;101549.66;5042996;28;20029;-58
2022/08/11 09:20:11;;;;;;;0.10;0.10;;;;;;;33.59;30.61;101551.97;5042578;28;20033;-59
2022/08/11 09:28:12;;;;;;;0.10;0.10;;;;;;;33.88;31.25;101556.56;5046060;28;20102;-60
2022/08/11 09:30:41;;;;;;;0.45;0.45;;;;;;;34.17;30.56;101541.44;5045779;28;20025;-60
2022/08/11 09:33:11;;;;;;;0.10;0.10;;;;;;;34.26;29.42;101553.22;5045250;28;20052;-59
2022/08/11 09:35:41;;;;;;;0.10;0.10;;;;;;;34.03;30.05;101556.16;5028265;28;20018;-59
2022/08/11 09:40:54;;;;;;;0.10;0.10;;;;;;;33.71;30.61;101547.34;5046038;28;20113;-60
2022/08/11 09:46:07;;;;;;;0.10;0.10;;;;;;;33.23;30.62;101546.19;5045445;28;20048;-59
2022/08/11 09:48:42;;;;;;;0.10;0.10;;;;;;;33.26;31.76;101537.84;5045620;28;20094;-60
2022/08/11 09:51:09;;;;;;;0.10;0.10;;;;;;;33.49;31.24;101534.91;5045626;28;20035;-59
2022/08/11 09:53:43;;;;;;;0.10;0.10;;;;;;;33.57;31.29;101542.31;5045618;28;20476;-60
2022/08/11 09:59:01;;;;;;;0.10;0.10;;;;;;;33.13;31.30;101536.22;5045722;28;20083;-61
2022/08/11 10:01:30;;;;;;;0.10;0.10;;;;;;;33.12;31.54;101525.59;5045350;28;20032;-59
2022/08/11 10:04:41;;;;;;;0.10;0.10;;;;;;;32.77;31.50;101525.81;5045283;28;20028;-59
2022/08/11 10:07:09;;;;;;;0.10;0.10;;;;;;;32.61;32.09;101534.34;4996871;28;20049;-59
2022/08/11 10:09:51;;;;;;;0.10;0.10;;;;;;;32.71;32.46;101530.88;5045355;28;20060;-59
2022/08/11 10:12:41;;;;;;;0.20;0.20;;;;;;;32.95;31.60;101522.53;5045224;28;20029;-59
2022/08/11 10:20:49;;;;;;;0.20;0.20;;;;;;;32.93;31.78;101524.47;5045439;28;20032;-59
2022/08/11 10:28:44;;;;;;;0.10;0.10;;;;;;;32.44;32.26;101518.78;5049354;28;20087;-59
2022/08/11 10:34:02;;;;;;;0.10;0.10;;;;;;;32.44;32.53;101524.16;5049059;28;20056;-59
2022/08/11 10:36:34;;;;;;;0.10;0.10;;;;;;;32.34;32.23;101519.56;5049506;28;20063;-59
2022/08/11 10:39:01;;;;;;;0.10;0.10;;;;;;;32.28;32.78;101518.25;5049271;28;20029;-59
2022/08/11 10:44:13;;;;;;;0.22;0.22;;;;;;;32.49;32.36;101527.31;5049160;28;20036;-59
2022/08/11 10:49:25;;;;;;;0.10;0.10;;;;;;;31.96;32.70;101526.31;5048829;28;20079;-59
2022/08/11 11:00:14;;;;;;;0.10;0.10;;;;;;;30.90;35.02;101522.06;5048650;28;20032;-59
2022/08/11 11:02:43;;;;;;;0.10;0.10;;;;;;;30.89;34.84;101515.00;5048384;28;20083;-59
2022/08/11 11:05:30;;;;;;;0.10;0.10;;;;;;;30.91;34.32;101531.84;5048349;28;20052;-59
2022/08/11 11:08:51;;;;;;;0.10;0.10;;;;;;;30.52;34.57;101522.22;5048426;28;20047;-59
2022/08/11 11:10:58;;;;;;;;;;;;;;;29.58;36.35;101520.16;5048662;28;20022;-60
2022/08/11 11:18:56;;;;;;;0.10;0.10;;;;;;;27.15;40.83;101523.53;5048395;28;20072;-59
2022/08/11 11:21:23;;;;;;;0.10;0.10;;;;;;;27.08;41.36;101528.38;5048114;28;20036;-59
2022/08/11 11:24:14;;;;;;;0.35;0.35;;;;;;;26.95;42.00;101529.09;5048199;28;20033;-59
2022/08/11 11:26:59;;;;;;;0.10;0.10;;;;;;;26.51;42.93;101525.47;5048193;28;20049;-59
2022/08/11 11:29:37;;;;;;;0.10;0.10;;;;;;;26.08;44.47;101516.34;5013764;28;20029;-59
2022/08/11 11:32:22;;;;;;;0.10;0.10;;;;;;;25.49;45.77;101523.09;5047862;28;20492;-59
2022/08/11 11:35:15;;;;;;;0.38;0.38;;;;;;;24.94;47.03;101533.03;5030089;28;20044;-60
2022/08/11 11:37:45;;;;;;;0.10;0.10;;;;;;;24.61;46.99;101525.81;5047991;28;20033;-59
2022/08/11 11:40:13;;;;;;;0.10;0.10;;;;;;;24.43;47.37;101528.44;5047631;28;20025;-59
2022/08/11 11:42:40;;;;;;;0.10;0.10;;;;;;;24.14;48.09;101518.31;5047774;28;20025;-59
2022/08/11 11:45:08;;;;;;;0.20;0.20;;;;;;;23.83;48.80;101522.44;5047596;28;20021;-59
2022/08/11 11:47:35;;;;;;;0.20;0.20;;;;;;;23.58;49.56;101520.06;5047704;28;20108;-60
2022/08/11 11:50:01;;;;;;;0.10;0.10;;;;;;;23.40;50.88;101522.63;5047606;28;20053;-59
2022/08/11 11:52:27;;;;;;;0.10;0.10;;;;;;;23.14;51.63;101517.53;5047437;28;20045;-60
2022/08/11 11:54:55;;;;;;;0.30;0.30;;;;;;;23.00;51.08;101515.47;5047740;28;20018;-59
2022/08/11 12:02:55;;;;;;;0.20;0.20;;;;;;;22.57;52.94;101518.16;5047484;28;20044;-59
2022/08/11 12:05:21;;;;;;;0.10;0.10;;;;;;;22.54;52.91;101521.75;5047138;28;20032;-59
2022/08/11 12:10:31;;;;;;;0.68;0.52;;;;;;;22.70;52.42;101513.19;5047561;28;20084;-61
2022/08/11 12:15:46;;;;;;;0.20;0.20;;;;;;;22.67;52.95;101515.97;5047260;28;20060;-60
2022/08/11 12:18:12;;;;;;;0.30;0.30;;;;;;;22.64;52.92;101513.47;5046875;28;20021;-60
2022/08/11 12:20:38;;;;;;;1.45;1.35;;;;;;;22.63;53.24;101512.63;5047044;28;20108;-60
2022/08/11 12:28:33;;;;;;;0.47;0.47;;;;;;;22.50;54.13;101508.72;5046973;28;20087;-59
2022/08/11 12:30:59;;;;;;;0.20;0.20;;;;;;;22.50;53.24;101506.06;5046662;28;20021;-60
2022/08/11 12:33:26;;;;;;;0.20;0.20;;;;;;;22.40;54.51;101509.09;5046651;28;20045;-59
2022/08/11 12:35:56;;;;;;;0.30;0.30;;;;;;;22.42;54.29;101503.75;5046829;28;20033;-59
2022/08/11 12:38:22;;;;;;;0.20;0.20;;;;;;;22.48;53.84;101508.78;5046694;28;20040;-58
2022/08/11 12:46:23;;;;;;;0.20;0.20;;;;;;;22.25;53.44;101501.81;5045823;28;20052;-60
2022/08/11 12:52:04;;;;;;;0.20;0.20;;;;;;;22.25;53.39;101504.44;5046527;28;20060;-59
2022/08/11 12:54:38;;;;;;;0.20;0.20;;;;;;;22.20;53.11;101503.75;5046469;28;20068;-59
2022/08/11 13:05:31;;;;;;;0.13;0.13;;;;;;;22.32;51.99;101489.19;5046113;28;20055;-59
2022/08/11 13:08:00;;;;;;;0.20;0.20;;;;;;;22.37;52.63;101500.41;5046013;28;20435;-60
2022/08/11 13:13:13;;;;;;;0.32;0.32;;;;;;;22.39;52.10;101504.75;5046116;28;20088;-59
2022/08/11 13:15:39;;;;;;;0.20;0.20;;;;;;;22.33;52.44;101498.84;5045963;28;20025;-59
2022/08/11 13:18:08;;;;;;;0.20;0.20;;;;;;;22.21;51.77;101493.13;5045912;28;20226;-60
2022/08/11 13:20:34;;;;;;;0.20;0.20;;;;;;;22.21;51.52;101497.53;5045855;28;20045;-60
2022/08/11 13:23:01;;;;;;;0.20;0.20;;;;;;;22.23;51.74;101493.94;5045991;28;20021;-58
2022/08/11 13:25:30;;;;;;;0.20;0.20;;;;;;;22.18;52.09;101487.97;5045686;28;20053;-61
2022/08/11 13:27:57;;;;;;;0.20;0.20;;;;;;;22.11;52.08;101483.84;5045686;28;20052;-61
2022/08/11 13:33:10;;;;;;;0.20;0.20;;;;;;;22.14;51.71;101489.84;5043277;28;20175;-60
2022/08/11 13:35:37;;;;;;;0.20;0.20;;;;;;;22.22;51.60;101486.06;5045784;28;20041;-60
2022/08/11 13:38:04;;;;;;;0.20;0.20;;;;;;;22.08;51.14;101476.88;5045767;28;20037;-61
2022/08/11 13:40:31;;;;;;;0.20;0.20;;;;;;;22.02;51.80;101475.34;5045422;28;20492;-60
2022/08/11 13:42:58;;;;;;;0.20;0.20;;;;;;;22.06;52.23;101475.22;5045693;28;20026;-60
2022/08/11 13:45:25;;;;;;;0.20;0.20;;;;;;;22.11;51.73;101473.28;5045360;28;20045;-61
2022/08/11 13:47:57;;;;;;;0.20;0.20;;;;;;;22.20;51.29;101470.25;5027526;28;20018;-61
2022/08/11 13:53:11;;;;;;;0.20;0.20;;;;;;;22.27;50.99;101473.47;5045667;28;20032;-60
2022/08/11 13:55:39;;;;;;;0.20;0.20;;;;;;;22.17;51.14;101476.50;5045377;28;20028;-60
2022/08/11 13:58:04;;;;;;;0.20;0.20;;;;;;;22.24;51.52;101469.19;5045376;28;20036;-61
2022/08/11 14:00:30;;;;;;;0.20;0.20;;;;;;;22.36;51.21;101469.63;5045385;28;20026;-61
2022/08/11 14:02:57;;;;;;;0.20;0.20;;;;;;;22.35;50.53;101474.03;5027511;28;20049;-61
2022/08/11 14:05:36;;;;;;;0.20;0.20;;;;;;;22.35;50.56;101462.63;5045251;28;20033;-61
2022/08/11 14:08:06;;;;;;;0.20;0.20;;;;;;;22.37;50.37;101468.69;5045231;28;20028;-60
2022/08/11 14:10:35;;;;;;;0.20;0.20;;;;;;;22.31;49.78;101471.59;5045474;28;20049;-60
2022/08/11 14:15:51;;;;;;;0.10;0.10;;;;;;;22.39;49.57;101470.34;5045116;28;20028;-61
2022/08/11 14:18:21;;;;;;;0.20;0.20;;;;;;;22.51;49.59;101462.81;5045009;28;20028;-60
2022/08/11 14:23:41;;;;;;;0.20;0.20;;;;;;;22.66;49.41;101463.97;5045219;28;20029;-59
2022/08/11 14:26:27;;;;;;;0.20;0.20;;;;;;;22.66;48.91;101461.34;5045007;28;20064;-60
2022/08/11 14:29:04;;;;;;;0.75;0.75;;;;;;;22.68;49.13;101456.84;5045225;28;20032;-59
2022/08/11 14:31:33;;;;;;;0.20;0.20;;;;;;;22.73;49.20;101452.19;5045055;28;20036;-59
2022/08/11 14:34:01;;;;;;;0.20;0.20;;;;;;;22.75;49.21;101450.34;5044745;28;20038;-60
2022/08/11 14:36:38;;;;;;;0.20;0.20;;;;;;;22.74;48.68;101453.06;5044868;28;20014;-59
2022/08/11 14:39:11;;;;;;;0.20;0.20;;;;;;;22.75;49.12;101442.41;5045134;28;20032;-59
2022/08/11 14:47:13;;;;;;;0.20;0.20;;;;;;;22.75;49.03;101439.75;5045109;28;20060;-60
2022/08/11 14:49:39;;;;;;;0.20;0.20;;;;;;;22.74;49.05;101440.69;5044754;28;20040;-60
2022/08/11 14:52:14;;;;;;;0.10;0.10;;;;;;;22.66;49.14;101432.22;5044749;28;20032;-61
2022/08/11 14:57:30;;;;;;;0.20;0.20;;;;;;;22.69;49.47;101431.22;5044843;28;20051;-60
2022/08/11 14:59:58;;;;;;;0.20;0.20;;;;;;;22.69;49.51;101431.22;5044772;28;20145;-60
2022/08/11 15:05:09;;;;;;;0.17;0.17;;;;;;;22.76;49.42;101428.25;5044684;28;20041;-60
2022/08/11 15:07:36;;;;;;;0.20;0.20;;;;;;;22.72;49.70;101421.38;5044635;28;20025;-60
2022/08/11 15:10:05;;;;;;;0.20;0.20;;;;;;;22.70;49.64;101420.56;5045833;28;20068;-59
2022/08/11 15:12:32;;;;;;;0.20;0.20;;;;;;;22.71;49.67;101414.38;5048119;28;20041;-59
2022/08/11 15:17:44;;;;;;;0.20;0.20;;;;;;;22.69;49.47;101408.28;5048400;28;20329;-59
2022/08/11 15:25:47;;;;;;;0.20;0.20;;;;;;;22.61;50.34;101402.44;5047954;28;20052;-59
2022/08/11 15:39:24;;;;;;;0.20;0.20;;;;;;;22.74;50.55;101376.31;5047751;28;20032;-60
2022/08/11 15:47:56;;;;;;;0.30;0.30;;;;;;;22.78;50.24;101373.44;5047674;28;20057;-61
2022/08/11 15:50:28;;;;;;;0.20;0.20;;;;;;;22.78;50.31;101372.59;5029576;28;20060;-61
2022/08/11 15:53:02;;;;;;;0.20;0.20;;;;;;;22.74;50.44;101371.88;5047301;28;20017;-61
2022/08/11 15:55:29;;;;;;;0.20;0.20;;;;;;;22.75;50.57;101370.94;5047578;28;20026;-61
2022/08/11 16:06:19;;;;;;;0.20;0.20;;;;;;;22.69;50.49;101363.28;5046950;28;20041;-61
2022/08/11 16:08:47;;;;;;;0.20;0.20;;;;;;;22.66;50.68;101371.34;5046983;28;20030;-61
2022/08/11 16:11:14;;;;;;;0.20;0.20;;;;;;;22.67;50.55;101359.84;5047130;28;20053;-61
2022/08/11 16:16:15;;;;;;;0.20;0.20;;;;;;;22.61;50.79;101368.91;5047124;28;20407;-60
2022/08/11 16:18:55;;;;;;;0.20;0.20;;;;;;;22.60;50.74;101356.63;5046889;28;20041;-61
2022/08/11 16:21:32;;;;;;;0.20;0.20;;;;;;;22.58;50.82;101358.44;5027712;28;20022;-60
2022/08/11 16:23:59;;;;;;;0.20;0.20;;;;;;;22.62;50.83;101349.44;5046769;28;20045;-60
2022/08/11 16:26:26;;;;;;;0.20;0.20;;;;;;;22.69;50.62;101354.47;5028956;28;20021;-59
2022/08/11 16:28:56;;;;;;;0.77;0.77;;;;;;;22.63;50.78;101348.53;5046551;28;20025;-60
2022/08/11 16:31:23;;;;;;;0.20;0.20;;;;;;;22.65;50.71;101357.25;5046661;28;20025;-60
2022/08/11 16:33:51;;;;;;;0.20;0.20;;;;;;;22.60;51.11;101358.41;5046411;28;20041;-58
2022/08/11 16:39:04;;;;;;;0.20;0.20;;;;;;;22.62;51.25;101348.63;5046819;28;20094;-59
2022/08/11 16:47:04;;;;;;;0.20;0.20;;;;;;;22.62;51.01;101335.38;5046598;28;20064;-61
2022/08/11 16:49:36;;;;;;;0.20;0.20;;;;;;;22.57;51.15;101332.03;5046293;28;20032;-62
2022/08/11 16:52:04;;;;;;;0.20;0.20;;;;;;;22.55;51.54;101337.41;5046428;28;20121;-61
2022/08/11 16:54:34;;;;;;;0.20;0.20;;;;;;;22.48;52.30;101333.28;5046375;28;20033;-61
2022/08/11 16:59:52;;;;;;;0.20;0.20;;;;;;;22.38;52.51;101325.78;5046546;28;20056;-60
2022/08/11 17:13:07;;;;;;;0.10;0.10;;;;;;;22.23;53.17;101337.88;5046456;28;20036;-61
2022/08/11 17:13:41;;;;;;;0.20;0.20;;;;;;;22.01;53.10;101336.13;5045935;28;20032;-59
2022/08/11 17:16:11;;;;;;;0.20;0.20;;;;;;;21.95;53.05;101340.84;5045996;28;20079;-64
2022/08/11 17:18:42;;;;;;;0.20;0.20;;;;;;;21.89;52.93;101344.59;5045558;28;20025;-60
2022/08/11 17:21:19;;;;;;;0.30;0.30;;;;;;;21.78;53.15;101340.63;5046143;28;20393;-61